Amherst, New Hampshire
Current Conditions -  °F | °C
As of 12:53 PM on Wednesday 28 Jan 2015 (Local Time) from KMHT Reporting Station
Broken Clouds Broken Clouds  
Wind Chill: -15°   Ceiling: 6000
Heat Index: -7°   Visibility: 10mi
Dew Point: -14°   Wind: 16mph
Humidity: 57%   Direction: 330°NNW
Pressure: 29.95"   Gusts: 25mph
Location:  42.86°N, 71.63°W
Report Text: KMHT 281753Z 33014G22KT 10SM BKN060 M07/M14 A2995 RMK AO2 SLP164 4/017 60000 T10671139 11061 21111 55001
Loading
Personal Weather Stations






























Interactive Weather Map New forecast layout! Learn more

10-Day Weather Forecast

Advertisements
Track Severe Weather on mobile